createdAt,value
2023-04-15T00:00:39.349Z,6.75
2023-04-15T00:03:44.742Z,2.08
2023-04-15T00:06:53.553Z,3.17
2023-04-15T00:10:01.893Z,2.60
2023-04-15T00:13:08.012Z,3.58
2023-04-15T00:16:13.500Z,3.38
2023-04-15T00:19:19.650Z,1.90
2023-04-15T00:22:24.735Z,3.03
2023-04-15T00:25:32.523Z,2.92
2023-04-15T00:28:37.899Z,1.35
2023-04-15T00:31:43.589Z,4.55
2023-04-15T00:34:50.436Z,5.78
2023-04-15T00:37:55.700Z,2.10
2023-04-15T00:41:04.218Z,2.25
2023-04-15T00:47:15.221Z,3.55
2023-04-15T00:50:20.493Z,2.22
2023-04-15T00:53:26.541Z,2.70
2023-04-15T00:56:34.530Z,5.75
2023-04-15T00:59:40.414Z,4.35
2023-04-15T01:02:46.348Z,3.30
2023-04-15T01:05:53.289Z,1.60
2023-04-15T01:08:59.600Z,4.57
2023-04-15T01:12:08.838Z,4.68
2023-04-15T01:15:14.337Z,2.75
2023-04-15T01:18:20.116Z,4.32
2023-04-15T01:21:25.663Z,4.53
2023-04-15T01:24:31.490Z,2.95
2023-04-15T01:27:40.303Z,5.63
2023-04-15T01:30:45.946Z,2.17
2023-04-15T01:33:53.232Z,4.22
2023-04-15T01:37:17.335Z,1.83
2023-04-15T01:40:23.381Z,3.25
2023-04-15T01:43:33.383Z,5.07
2023-04-15T01:46:40.376Z,2.72
2023-04-15T01:49:46.952Z,3.08
2023-04-15T01:52:53.816Z,1.83
2023-04-15T01:56:00.737Z,2.30
2023-04-15T01:59:10.350Z,3.03
2023-04-15T02:02:17.775Z,3.45
2023-04-15T02:05:24.845Z,2.72
2023-04-15T02:08:31.155Z,3.30
2023-04-15T02:11:38.404Z,2.38
2023-04-15T02:14:47.762Z,4.65
2023-04-15T02:17:55.974Z,3.67
2023-04-15T02:21:02.491Z,8.13
2023-04-15T02:24:09.802Z,4.10
2023-04-15T02:27:19.257Z,8.00
2023-04-15T02:30:28.596Z,2.53
2023-04-15T02:33:35.516Z,3.63
2023-04-15T02:36:42.260Z,3.53
2023-04-15T02:39:48.891Z,2.35
2023-04-15T02:42:55.546Z,2.20
2023-04-15T02:46:04.789Z,2.50
2023-04-15T02:49:11.882Z,5.28
2023-04-15T02:52:18.404Z,10.02
2023-04-15T02:55:25.521Z,3.35
2023-04-15T02:58:32.224Z,6.63
2023-04-15T03:01:41.650Z,4.78
2023-04-15T03:04:48.183Z,2.80
2023-04-15T03:07:54.899Z,4.65
2023-04-15T03:11:02.994Z,5.45
2023-04-15T03:14:09.582Z,9.50
2023-04-15T03:17:22.841Z,4.20
2023-04-15T03:20:30.063Z,4.93
2023-04-15T03:23:36.526Z,5.32
2023-04-15T03:26:43.079Z,2.95
2023-04-15T03:29:52.428Z,3.80
2023-04-15T03:36:10.666Z,6.82
2023-04-15T03:39:17.786Z,6.20
2023-04-15T03:42:24.196Z,3.10
2023-04-15T03:45:30.658Z,4.88
2023-04-15T03:48:37.192Z,6.38
2023-04-15T03:51:46.433Z,7.35
2023-04-15T03:54:53.263Z,4.05
2023-04-15T03:58:00.173Z,5.07
2023-04-15T04:01:06.917Z,4.35
2023-04-15T04:04:13.566Z,11.10
2023-04-15T04:07:22.937Z,8.20
2023-04-15T04:10:30.312Z,2.58
2023-04-15T04:13:37.062Z,7.03
2023-04-15T04:16:43.754Z,5.20
2023-04-15T04:19:50.141Z,3.78
2023-04-15T04:22:59.158Z,7.20
2023-04-15T04:26:05.718Z,4.53
2023-04-15T04:29:12.985Z,4.68
2023-04-15T04:32:19.718Z,5.05
2023-04-15T04:35:26.096Z,4.07
2023-04-15T04:38:35.113Z,4.63
2023-04-15T04:41:41.636Z,7.28
2023-04-15T04:44:48.179Z,4.28
2023-04-15T04:47:55.059Z,5.95
2023-04-15T04:51:01.603Z,4.25
2023-04-15T04:54:10.867Z,5.97
2023-04-15T04:57:17.244Z,5.75
2023-04-15T05:00:23.619Z,3.65
2023-04-15T05:03:30.510Z,6.95
2023-04-15T05:06:37.393Z,5.85
2023-04-15T05:09:46.749Z,6.10
2023-04-15T05:12:53.357Z,4.78
2023-04-15T05:16:00.146Z,4.78
2023-04-15T05:19:07.080Z,6.00
2023-04-15T05:22:13.356Z,6.72
2023-04-15T05:25:22.924Z,3.88
2023-04-15T05:28:29.514Z,5.18
2023-04-15T05:31:36.201Z,8.00
2023-04-15T05:34:42.940Z,3.90
2023-04-15T05:37:49.983Z,6.15
2023-04-15T05:40:58.991Z,27.05
2023-04-15T05:44:05.831Z,7.55
2023-04-15T05:47:12.316Z,3.75
2023-04-15T05:50:18.765Z,4.80
2023-04-15T05:53:25.570Z,7.65
2023-04-15T05:56:34.770Z,8.13
2023-04-15T05:59:42.513Z,11.70
2023-04-15T06:02:50.027Z,6.15
2023-04-15T06:05:57.022Z,9.85
2023-04-15T06:09:03.607Z,3.70
2023-04-15T06:12:13.524Z,7.68
2023-04-15T06:15:20.418Z,5.55
2023-04-15T06:18:26.867Z,8.10
2023-04-15T06:21:33.336Z,4.90
2023-04-15T06:24:40.112Z,5.88
2023-04-15T06:27:49.551Z,5.82
2023-04-15T06:30:56.545Z,5.65
2023-04-15T06:34:03.068Z,5.38
2023-04-15T06:37:10.367Z,6.68
2023-04-15T06:40:17.623Z,5.07
2023-04-15T06:43:26.542Z,11.57
2023-04-15T06:46:33.108Z,10.93
2023-04-15T06:49:40.804Z,4.53
2023-04-15T06:52:47.569Z,7.33
2023-04-15T06:55:54.264Z,7.63
2023-04-15T06:59:03.947Z,5.57
2023-04-15T07:02:12.241Z,7.45
2023-04-15T07:05:19.391Z,5.60
2023-04-15T07:08:26.474Z,8.32
2023-04-15T07:11:32.956Z,4.85
2023-04-15T07:14:42.059Z,7.50
2023-04-15T07:17:48.730Z,5.35
2023-04-15T07:20:55.184Z,4.18
2023-04-15T07:24:02.487Z,6.35
2023-04-15T07:27:09.322Z,6.90
2023-04-15T07:30:18.909Z,7.88
2023-04-15T07:33:25.777Z,9.07
2023-04-15T07:36:32.639Z,9.05
2023-04-15T07:39:39.366Z,6.10
2023-04-15T07:42:46.189Z,10.30
2023-04-15T07:45:55.738Z,4.03
2023-04-15T07:49:02.584Z,8.88
2023-04-15T07:52:09.218Z,7.53
2023-04-15T07:55:18.026Z,11.45
2023-04-15T07:58:24.708Z,12.65
2023-04-15T08:01:33.859Z,6.20
2023-04-15T08:04:41.043Z,3.28
2023-04-15T08:07:47.729Z,7.25
2023-04-15T08:10:54.433Z,8.52
2023-04-15T08:14:00.937Z,5.40
2023-04-15T08:17:10.229Z,6.05
2023-04-15T08:20:17.048Z,5.88
2023-04-15T08:23:23.737Z,9.13
2023-04-15T08:26:30.674Z,4.57
2023-04-15T08:29:37.702Z,5.15
2023-04-15T08:32:49.353Z,9.02
2023-04-15T08:35:56.198Z,5.38
2023-04-15T08:39:02.836Z,7.53
2023-04-15T08:42:14.243Z,5.93
2023-04-15T08:45:21.488Z,8.88
2023-04-15T08:48:31.988Z,4.03
2023-04-15T08:51:39.057Z,5.07
2023-04-15T08:54:46.212Z,5.47
2023-04-15T08:57:53.020Z,4.25
2023-04-15T09:00:59.788Z,3.53
2023-04-15T09:04:09.473Z,5.47
2023-04-15T09:07:16.004Z,7.53
2023-04-15T09:10:22.784Z,5.60
2023-04-15T09:13:29.546Z,6.45
2023-04-15T09:16:36.881Z,5.38
2023-04-15T09:19:46.362Z,7.75
2023-04-15T09:22:53.492Z,3.58
2023-04-15T09:26:00.715Z,4.78
2023-04-15T09:29:08.044Z,6.85
2023-04-15T09:32:17.989Z,6.18
2023-04-15T09:35:28.509Z,8.68
2023-04-15T09:38:35.047Z,11.82
2023-04-15T09:41:42.157Z,8.20
2023-04-15T09:44:48.519Z,7.05
2023-04-15T09:47:56.904Z,6.20
2023-04-15T09:51:07.016Z,3.88
2023-04-15T09:54:13.973Z,4.38
2023-04-15T09:57:20.529Z,8.10
2023-04-15T10:00:27.322Z,3.90
2023-04-15T10:03:35.790Z,4.72
2023-04-15T10:06:45.406Z,7.03
2023-04-15T10:09:52.320Z,6.15
2023-04-15T10:12:59.160Z,5.18
2023-04-15T10:16:08.744Z,7.18
2023-04-15T10:19:16.940Z,7.00
2023-04-15T10:22:26.266Z,4.43
2023-04-15T10:25:33.042Z,4.53
2023-04-15T10:28:39.590Z,4.15
2023-04-15T10:31:46.551Z,11.00
2023-04-15T10:34:54.557Z,7.63
2023-04-15T10:38:04.056Z,8.95
2023-04-15T10:41:21.573Z,9.40
2023-04-15T10:44:29.115Z,9.38
2023-04-15T10:47:35.944Z,7.05
2023-04-15T10:50:42.689Z,8.60
2023-04-15T10:53:51.805Z,9.95
2023-04-15T10:57:11.346Z,5.63
2023-04-15T11:00:18.855Z,7.38
2023-04-15T11:03:39.863Z,5.65
2023-04-15T11:06:49.704Z,6.95
2023-04-15T11:09:59.015Z,5.63
2023-04-15T11:13:06.313Z,7.45
2023-04-15T11:16:13.260Z,8.63
2023-04-15T11:19:20.938Z,4.75
2023-04-15T11:22:27.640Z,5.82
2023-04-15T11:25:38.161Z,7.82
2023-04-15T11:28:45.945Z,8.73
2023-04-15T11:31:52.649Z,6.47
2023-04-15T11:34:59.467Z,7.28
2023-04-15T11:38:06.471Z,10.27
2023-04-15T11:41:15.827Z,5.78
2023-04-15T11:44:22.497Z,7.93
2023-04-15T11:47:29.170Z,5.20
2023-04-15T11:50:35.696Z,6.78
2023-04-15T11:53:42.702Z,9.32
2023-04-15T11:56:54.011Z,7.97
2023-04-15T11:59:59.739Z,7.53
2023-04-15T12:03:20.046Z,8.93
2023-04-15T12:06:28.331Z,7.05
2023-04-15T12:09:33.743Z,7.35
2023-04-15T12:12:44.110Z,11.38
2023-04-15T12:15:53.652Z,7.57
2023-04-15T12:18:59.808Z,10.02
2023-04-15T12:22:05.983Z,9.55
2023-04-15T12:25:11.472Z,5.35
2023-04-15T12:28:20.778Z,6.65
2023-04-15T12:31:26.197Z,6.63
2023-04-15T12:34:32.510Z,7.93
2023-04-15T12:37:37.672Z,11.93
2023-04-15T12:40:46.044Z,5.60
2023-04-15T12:43:54.229Z,8.32
2023-04-15T12:47:00.406Z,7.45
2023-04-15T12:50:06.137Z,5.07
2023-04-15T12:53:12.276Z,7.40
2023-04-15T12:56:17.731Z,11.02
2023-04-15T12:59:26.233Z,5.13
2023-04-15T13:02:31.835Z,6.05
2023-04-15T13:05:39.510Z,8.05
2023-04-15T13:08:57.495Z,6.93
2023-04-15T13:12:05.676Z,4.30
2023-04-15T13:15:14.829Z,6.95
2023-04-15T13:18:20.366Z,7.72
2023-04-15T13:21:25.785Z,5.47
2023-04-15T13:24:31.328Z,5.38
2023-04-15T13:27:36.780Z,8.48
2023-04-15T13:30:46.122Z,9.98
2023-04-15T13:33:51.878Z,7.35
2023-04-15T13:36:57.370Z,6.10
2023-04-15T13:40:03.318Z,11.57
2023-04-15T13:43:09.405Z,6.63
2023-04-15T13:46:17.828Z,10.50
2023-04-15T13:49:23.503Z,9.07
2023-04-15T13:52:29.307Z,6.13
2023-04-15T13:55:35.403Z,3.40
2023-04-15T13:58:41.403Z,6.22
2023-04-15T14:01:49.665Z,7.40
2023-04-15T14:04:55.378Z,9.57
2023-04-15T14:08:00.684Z,9.38
2023-04-15T14:11:06.358Z,6.20
2023-04-15T14:14:11.704Z,9.52
2023-04-15T14:17:20.032Z,10.25
2023-04-15T14:20:25.484Z,6.25
2023-04-15T14:23:31.058Z,5.75
2023-04-15T14:26:36.421Z,7.80
2023-04-15T14:29:42.136Z,5.35
2023-04-15T14:32:49.984Z,12.40
2023-04-15T14:35:55.800Z,12.60
2023-04-15T14:39:01.338Z,7.13
2023-04-15T14:42:07.111Z,7.82
2023-04-15T14:45:13.517Z,8.15
2023-04-15T14:48:21.900Z,6.32
2023-04-15T14:54:32.300Z,7.43
2023-04-15T14:57:37.970Z,8.70
2023-04-15T15:00:44.758Z,10.57
2023-04-15T15:03:53.114Z,6.72
2023-04-15T15:06:58.555Z,10.65
2023-04-15T15:10:04.519Z,8.30
2023-04-15T15:13:10.615Z,9.13
2023-04-15T15:16:16.681Z,8.65
2023-04-15T15:19:25.343Z,9.25
2023-04-15T15:22:30.818Z,8.88
2023-04-15T15:25:36.348Z,9.93
2023-04-15T15:28:42.350Z,6.63
2023-04-15T15:31:47.744Z,7.22
2023-04-15T15:34:55.676Z,8.00
2023-04-15T15:38:02.880Z,11.43
2023-04-15T15:41:08.260Z,15.85
2023-04-15T15:44:13.850Z,9.10
2023-04-15T15:47:19.158Z,8.52
2023-04-15T15:50:27.214Z,8.18
2023-04-15T15:53:32.890Z,8.10
2023-04-15T15:56:39.729Z,9.65
2023-04-15T15:59:45.017Z,9.20
2023-04-15T16:03:05.790Z,6.07
2023-04-15T16:06:15.227Z,9.95
2023-04-15T16:09:20.793Z,6.13
2023-04-15T16:12:26.125Z,8.93
2023-04-15T16:15:31.601Z,11.23
2023-04-15T16:18:37.002Z,8.70
2023-04-15T16:21:45.665Z,9.48
2023-04-15T16:28:05.567Z,12.40
2023-04-15T16:31:14.406Z,10.98
2023-04-15T16:34:20.305Z,10.90
2023-04-15T16:37:28.457Z,14.68
2023-04-15T16:40:33.901Z,10.48
2023-04-15T16:43:39.292Z,11.75
2023-04-15T16:46:44.437Z,8.45
2023-04-15T16:49:50.028Z,12.43
2023-04-15T16:52:57.958Z,13.23
2023-04-15T16:56:03.364Z,18.02
2023-04-15T16:59:09.219Z,16.80
2023-04-15T17:02:15.823Z,13.40
2023-04-15T17:05:21.020Z,15.20
2023-04-15T17:08:29.242Z,14.02
2023-04-15T17:11:35.506Z,11.60
2023-04-15T17:14:40.701Z,13.23
2023-04-15T17:17:47.144Z,14.07
2023-04-15T17:20:53.063Z,13.25
2023-04-15T17:24:02.605Z,18.65
2023-04-15T17:27:29.256Z,15.05
2023-04-15T17:30:54.469Z,13.43
2023-04-15T17:34:20.044Z,15.00
2023-04-15T17:37:45.118Z,14.38
2023-04-15T17:41:13.137Z,13.35
2023-04-15T17:44:38.656Z,25.23
2023-04-15T17:48:04.264Z,18.70
2023-04-15T17:51:30.206Z,15.40
2023-04-15T17:55:05.266Z,18.27
2023-04-15T17:58:33.415Z,21.67
2023-04-15T18:01:58.972Z,33.67
2023-04-15T18:05:24.447Z,17.27
2023-04-15T18:08:49.859Z,20.30
2023-04-15T18:12:15.135Z,21.60
2023-04-15T18:15:43.817Z,15.68
2023-04-15T18:19:11.131Z,20.90
2023-04-15T18:22:16.557Z,20.15
2023-04-15T18:25:21.926Z,16.77
2023-04-15T18:28:27.672Z,15.23
2023-04-15T18:31:35.756Z,19.75
2023-04-15T18:34:43.408Z,13.98
2023-04-15T18:37:48.658Z,20.33
2023-04-15T18:40:54.367Z,12.98
2023-04-15T18:43:59.757Z,12.55
2023-04-15T18:47:07.608Z,11.80
2023-04-15T18:50:13.178Z,14.77
2023-04-15T18:53:18.669Z,19.25
2023-04-15T18:56:24.336Z,14.43
2023-04-15T18:59:30.850Z,11.82
2023-04-15T19:02:39.388Z,13.38
2023-04-15T19:08:50.701Z,11.32
2023-04-15T19:11:57.324Z,13.48
2023-04-15T19:15:02.584Z,11.82
2023-04-15T19:18:13.159Z,19.02
2023-04-15T19:21:18.750Z,12.25
2023-04-15T19:24:24.151Z,13.93
2023-04-15T19:27:30.442Z,16.20
2023-04-15T19:30:35.684Z,9.45
2023-04-15T19:33:43.842Z,10.63
2023-04-15T19:36:49.436Z,10.02
2023-04-15T19:39:54.850Z,13.27
2023-04-15T19:43:00.339Z,14.88
2023-04-15T19:46:05.819Z,12.30
2023-04-15T19:49:13.713Z,10.43
2023-04-15T19:52:18.858Z,15.50
2023-04-15T19:55:24.493Z,12.88
2023-04-15T19:58:30.046Z,11.77
2023-04-15T20:01:35.632Z,16.80
2023-04-15T20:04:43.564Z,16.05
2023-04-15T20:07:52.221Z,14.77
2023-04-15T20:10:57.709Z,16.92
2023-04-15T20:14:03.369Z,12.02
2023-04-15T20:17:08.696Z,19.25
2023-04-15T20:20:16.969Z,14.05
2023-04-15T20:23:22.385Z,16.98
2023-04-15T20:26:28.057Z,14.27
2023-04-15T20:29:33.270Z,11.65
2023-04-15T20:32:39.208Z,12.00
2023-04-15T20:35:47.162Z,17.70
2023-04-15T20:38:52.573Z,16.33
2023-04-15T20:41:58.053Z,15.57
2023-04-15T20:45:03.557Z,11.80
2023-04-15T20:48:10.429Z,12.13
2023-04-15T20:51:18.718Z,12.38
2023-04-15T20:54:24.208Z,12.77
2023-04-15T20:57:30.745Z,16.52
2023-04-15T21:00:36.176Z,13.95
2023-04-15T21:03:41.810Z,9.82
2023-04-15T21:06:50.976Z,15.60
2023-04-15T21:09:56.489Z,12.80
2023-04-15T21:13:02.075Z,10.55
2023-04-15T21:16:08.014Z,11.70
2023-04-15T21:19:13.269Z,12.00
2023-04-15T21:22:21.489Z,13.68
2023-04-15T21:25:26.703Z,15.75
2023-04-15T21:28:32.746Z,20.55
2023-04-15T21:31:38.265Z,16.50
2023-04-15T21:34:44.697Z,12.60
2023-04-15T21:37:52.698Z,16.40
2023-04-15T21:40:58.477Z,10.90
2023-04-15T21:44:03.849Z,14.75
2023-04-15T21:47:09.108Z,15.15
2023-04-15T21:50:14.799Z,13.30
2023-04-15T21:53:22.929Z,9.90
2023-04-15T21:56:28.800Z,10.63
2023-04-15T21:59:34.178Z,12.93
2023-04-15T22:02:40.483Z,14.48
2023-04-15T22:05:46.920Z,13.15
2023-04-15T22:08:57.578Z,12.50
2023-04-15T22:12:03.203Z,13.45
2023-04-15T22:15:09.536Z,12.93
2023-04-15T22:18:15.147Z,9.15
2023-04-15T22:21:20.335Z,11.88
2023-04-15T22:24:37.280Z,14.27
2023-04-15T22:27:45.464Z,11.77
2023-04-15T22:30:50.981Z,6.53
2023-04-15T22:33:56.140Z,9.20
2023-04-15T22:37:01.499Z,9.65
2023-04-15T22:40:10.162Z,8.15
2023-04-15T22:43:15.623Z,11.10
2023-04-15T22:46:21.295Z,8.25
2023-04-15T22:49:26.755Z,10.02
2023-04-15T22:52:32.424Z,10.15
2023-04-15T22:55:40.738Z,8.20
2023-04-15T22:58:46.270Z,10.40
2023-04-15T23:01:51.809Z,10.38
2023-04-15T23:04:57.348Z,9.65
2023-04-15T23:08:03.023Z,14.20
2023-04-15T23:11:11.123Z,7.57
2023-04-15T23:14:16.577Z,9.85
2023-04-15T23:17:21.943Z,8.05
2023-04-15T23:20:27.130Z,9.60
2023-04-15T23:23:32.667Z,16.08
2023-04-15T23:26:41.088Z,11.43
2023-04-15T23:32:51.451Z,7.88
2023-04-15T23:35:57.086Z,11.02
2023-04-15T23:39:02.379Z,9.70
2023-04-15T23:42:10.587Z,10.50
2023-04-15T23:45:16.184Z,12.93
2023-04-15T23:48:23.874Z,7.88
2023-04-15T23:51:29.472Z,9.75
2023-04-15T23:54:34.604Z,9.43
2023-04-15T23:57:42.531Z,12.70
